Time;durP1;ratioP1;P1;durP2;ratioP2;P2;SDS_P1;SDS_P2;PMS_P1;PMS_P2;Temp;Humidity;BMP_temperature;BMP_pressure;BME280_temperature;BME280_humidity;BME280_pressure;Samples;Min_cycle;Max_cycle;Signal;HPM_P1;HPM_P2
2022/07/25 00:02:26;;;;;;;11.93;10.83;;;;;;;20.90;88.97;97935.25;5062739;28;20208;-74
2022/07/25 00:04:52;;;;;;;11.57;10.43;;;;;;;20.90;88.50;97932.56;5064357;28;20227;-74
2022/07/25 00:07:19;;;;;;;11.23;10.20;;;;;;;20.82;89.55;97924.53;5063203;28;20208;-74
2022/07/25 00:09:47;;;;;;;12.10;11.00;;;;;;;20.73;90.08;97930.94;5060826;28;20212;-74
2022/07/25 00:12:13;;;;;;;12.33;11.17;;;;;;;20.65;90.58;97927.44;5062692;28;20208;-74
2022/07/25 00:14:40;;;;;;;12.13;11.03;;;;;;;20.56;91.32;97920.44;5064462;28;20688;-74
2022/07/25 00:17:06;;;;;;;11.27;10.23;;;;;;;20.46;92.17;97920.63;5063173;28;20218;-73
2022/07/25 00:19:33;;;;;;;11.60;10.60;;;;;;;20.46;92.11;97922.47;5060668;28;20216;-74
2022/07/25 00:21:59;;;;;;;11.87;10.77;;;;;;;20.39;92.46;97921.47;5062050;28;20252;-73
2022/07/25 00:24:26;;;;;;;11.13;10.13;;;;;;;20.34;92.64;97921.16;5062841;28;20583;-73
2022/07/25 00:26:54;;;;;;;11.97;10.83;;;;;;;20.29;92.80;97927.03;5066680;28;20693;-74
2022/07/25 00:29:20;;;;;;;12.00;10.90;;;;;;;20.29;92.87;97916.31;5064367;28;20212;-74
2022/07/25 00:31:47;;;;;;;11.47;10.33;;;;;;;20.33;92.10;97928.38;5065130;28;20212;-73
2022/07/25 00:34:14;;;;;;;11.70;10.60;;;;;;;20.33;91.60;97912.28;5068001;28;20209;-73
2022/07/25 00:36:40;;;;;;;11.13;9.93;;;;;;;20.37;91.11;97918.16;5067639;28;20220;-73
2022/07/25 00:39:07;;;;;;;11.23;10.17;;;;;;;20.44;90.32;97917.28;5062867;28;20212;-73
2022/07/25 00:41:33;;;;;;;11.30;10.20;;;;;;;20.52;89.49;97919.09;5064375;28;20269;-73
2022/07/25 00:44:01;;;;;;;11.80;10.60;;;;;;;20.56;88.97;97918.59;5067680;28;20249;-73
2022/07/25 00:46:28;;;;;;;10.67;9.67;;;;;;;20.48;89.15;97915.91;5067354;28;20601;-73
2022/07/25 00:48:54;;;;;;;11.70;10.63;;;;;;;20.46;89.51;97912.56;5054808;28;20223;-73
2022/07/25 00:51:21;;;;;;;11.37;10.27;;;;;;;20.43;89.58;97912.91;5063768;28;20213;-74
2022/07/25 00:53:48;;;;;;;10.97;9.97;;;;;;;20.41;89.56;97920.31;5051283;28;20225;-74
2022/07/25 00:56:16;;;;;;;11.70;10.43;;;;;;;20.45;88.95;97920.78;5067455;28;20207;-74
2022/07/25 00:58:44;;;;;;;11.97;10.77;;;;;;;20.43;88.66;97918.28;5063163;28;20216;-73
2022/07/25 01:01:12;;;;;;;11.43;10.33;;;;;;;20.43;88.61;97915.59;5063458;28;20257;-73
2022/07/25 01:03:38;;;;;;;12.00;10.90;;;;;;;20.41;88.71;97914.94;5051213;28;20233;-73
2022/07/25 01:06:05;;;;;;;11.90;10.80;;;;;;;20.41;88.85;97914.94;5067175;28;20258;-73
2022/07/25 01:08:32;;;;;;;11.43;10.33;;;;;;;20.49;88.44;97914.06;5063384;28;20212;-74
2022/07/25 01:10:58;;;;;;;11.40;10.20;;;;;;;20.46;88.82;97912.56;5063452;28;20303;-74
2022/07/25 01:13:25;;;;;;;11.37;10.30;;;;;;;20.44;88.85;97908.38;5067071;28;20218;-74
2022/07/25 01:15:52;;;;;;;11.47;10.40;;;;;;;20.44;88.80;97909.25;5065155;28;20683;-73
2022/07/25 01:18:19;;;;;;;11.40;10.30;;;;;;;20.47;88.75;97916.94;5063976;28;20219;-73
2022/07/25 01:20:48;;;;;;;11.73;10.60;;;;;;;20.46;88.64;97909.88;5062957;28;20244;-73
2022/07/25 01:23:14;;;;;;;11.27;10.17;;;;;;;20.47;88.67;97908.88;5066461;28;20215;-73
2022/07/25 01:25:41;;;;;;;10.83;9.83;;;;;;;20.47;88.73;97903.50;5066557;28;20676;-73
2022/07/25 01:28:07;;;;;;;11.70;10.17;;;;;;;20.52;88.46;97906.50;5063954;28;20593;-73
2022/07/25 01:30:34;;;;;;;10.90;9.90;;;;;;;20.47;88.82;97898.13;5063272;28;20219;-73
2022/07/25 01:33:00;;;;;;;11.47;10.37;;;;;;;20.46;89.31;97893.78;5066219;28;20310;-74
2022/07/25 01:35:27;;;;;;;11.70;10.60;;;;;;;20.46;89.51;97891.09;5066698;28;20219;-73
2022/07/25 01:37:55;;;;;;;11.60;10.40;;;;;;;20.45;89.91;97892.13;5057089;28;20214;-74
2022/07/25 01:40:22;;;;;;;11.87;10.70;;;;;;;20.45;89.72;97888.56;5062826;28;20223;-74
2022/07/25 01:42:48;;;;;;;11.40;10.30;;;;;;;20.42;90.03;97887.06;5063825;28;20590;-74
2022/07/25 01:45:15;;;;;;;12.07;10.77;;;;;;;20.35;90.73;97887.97;5066265;28;20700;-73
2022/07/25 01:47:41;;;;;;;11.50;10.40;;;;;;;20.34;90.73;97889.78;5064460;28;20212;-74
2022/07/25 01:50:09;;;;;;;11.90;10.70;;;;;;;20.30;90.97;97884.94;5062890;28;20218;-73
2022/07/25 01:52:36;;;;;;;11.37;10.27;;;;;;;20.31;90.63;97887.44;5064643;28;20212;-74
2022/07/25 01:55:04;;;;;;;11.87;10.67;;;;;;;20.27;90.73;97886.13;5066114;28;20211;-73
2022/07/25 01:57:31;;;;;;;12.43;11.23;;;;;;;20.24;91.04;97880.28;5064080;28;20305;-73
2022/07/25 01:59:58;;;;;;;11.20;10.10;;;;;;;20.22;91.27;97883.13;5062404;28;20223;-73
2022/07/25 02:02:24;;;;;;;11.50;10.37;;;;;;;20.21;90.96;97881.44;5064481;28;20219;-73
2022/07/25 02:04:51;;;;;;;11.87;10.77;;;;;;;20.11;91.81;97877.28;5065823;28;20216;-73
2022/07/25 02:07:17;;;;;;;11.47;10.33;;;;;;;20.05;92.29;97873.38;5064553;28;20241;-73
2022/07/25 02:09:44;;;;;;;11.23;10.13;;;;;;;20.02;92.72;97881.78;5060906;28;20212;-73
2022/07/25 02:12:11;;;;;;;11.73;10.63;;;;;;;20.01;92.63;97876.59;5063573;28;20234;-73
2022/07/25 02:14:38;;;;;;;11.77;10.67;;;;;;;19.95;93.03;97871.91;5065733;28;20217;-73
2022/07/25 02:17:05;;;;;;;12.33;11.10;;;;;;;19.95;93.10;97870.06;5064719;28;20641;-73
2022/07/25 02:19:31;;;;;;;12.30;11.10;;;;;;;19.94;93.22;97873.75;5061860;28;20223;-73
2022/07/25 02:21:58;;;;;;;11.93;10.73;;;;;;;19.93;93.14;97866.72;5063456;28;20255;-74
2022/07/25 02:24:24;;;;;;;11.90;10.73;;;;;;;19.93;93.18;97866.72;5065937;28;20215;-73
2022/07/25 02:26:51;;;;;;;12.27;11.10;;;;;;;19.93;93.30;97861.34;5064847;28;20811;-74
2022/07/25 02:29:19;;;;;;;11.47;10.37;;;;;;;19.94;92.96;97864.88;5062146;28;20216;-74
2022/07/25 02:31:45;;;;;;;11.90;10.30;;;;;;;19.95;92.78;97856.66;5062843;28;20583;-73
2022/07/25 02:34:12;;;;;;;11.27;10.17;;;;;;;19.91;93.24;97858.00;5064386;28;20208;-73
2022/07/25 02:36:38;;;;;;;12.17;10.97;;;;;;;19.86;93.36;97855.00;5064982;28;20211;-73
2022/07/25 02:39:05;;;;;;;12.20;11.00;;;;;;;19.82;93.65;97858.19;5061819;28;20220;-73
2022/07/25 02:41:31;;;;;;;12.13;10.83;;;;;;;19.79;93.94;97855.81;5062087;28;20611;-73
2022/07/25 02:43:58;;;;;;;11.43;10.43;;;;;;;19.77;93.94;97850.66;5065245;28;20211;-73
2022/07/25 02:46:26;;;;;;;11.97;10.87;;;;;;;19.76;93.96;97851.63;5065440;28;20237;-73
2022/07/25 02:48:52;;;;;;;11.50;10.40;;;;;;;19.76;94.24;97848.97;5053462;28;20258;-73
2022/07/25 02:51:19;;;;;;;11.63;10.53;;;;;;;19.77;94.16;97849.81;5061307;28;20223;-74
2022/07/25 02:53:45;;;;;;;11.20;10.10;;;;;;;19.76;94.21;97854.31;5048761;28;20212;-73
2022/07/25 02:56:12;;;;;;;11.93;10.80;;;;;;;19.77;94.49;97844.44;5065315;28;20208;-73
2022/07/25 02:58:38;;;;;;;11.43;10.43;;;;;;;19.77;94.26;97850.66;5062109;28;20207;-73
2022/07/25 03:01:05;;;;;;;11.73;10.63;;;;;;;19.76;94.21;97838.22;5059591;28;20669;-73
2022/07/25 03:03:33;;;;;;;11.43;10.33;;;;;;;19.79;93.91;97843.28;5064844;28;20215;-73
2022/07/25 03:06:00;;;;;;;11.30;10.10;;;;;;;19.75;94.07;97841.91;5064857;28;20707;-73
2022/07/25 03:08:26;;;;;;;11.97;10.87;;;;;;;19.71;94.07;97847.81;5062041;28;20213;-74
2022/07/25 03:10:53;;;;;;;12.00;10.90;;;;;;;19.74;94.05;97844.78;5061425;28;20211;-73
2022/07/25 03:13:19;;;;;;;11.53;9.93;;;;;;;19.72;93.72;97850.31;5064332;28;20211;-73
2022/07/25 03:15:46;;;;;;;11.83;10.70;;;;;;;19.74;93.37;97850.97;5064899;28;20657;-73
2022/07/25 03:18:12;;;;;;;11.20;10.20;;;;;;;19.75;93.08;97841.09;5062340;28;20222;-73
2022/07/25 03:20:40;;;;;;;12.27;11.07;;;;;;;19.74;92.89;97839.44;5060920;28;20248;-73
2022/07/25 03:23:07;;;;;;;12.10;10.90;;;;;;;19.70;93.48;97836.22;5064016;28;20207;-73
2022/07/25 03:25:33;;;;;;;11.20;10.10;;;;;;;19.68;93.62;97835.56;5065082;28;20215;-73
2022/07/25 03:28:01;;;;;;;11.20;10.20;;;;;;;19.66;93.48;97831.38;5061029;28;20676;-73
2022/07/25 03:30:27;;;;;;;12.20;10.93;;;;;;;19.67;93.74;97833.06;5061404;28;20212;-73
2022/07/25 03:32:54;;;;;;;11.50;10.40;;;;;;;19.63;94.04;97829.88;5063544;28;20216;-74
2022/07/25 03:35:20;;;;;;;11.93;10.63;;;;;;;19.58;94.36;97834.91;5065035;28;20269;-74
2022/07/25 03:37:48;;;;;;;11.67;10.57;;;;;;;19.61;94.43;97820.31;5057549;28;20692;-73
2022/07/25 03:40:15;;;;;;;11.60;10.50;;;;;;;19.60;94.61;97822.19;5061263;28;20219;-74
2022/07/25 03:42:41;;;;;;;11.33;10.23;;;;;;;19.58;94.85;97818.81;5063215;28;20212;-73
2022/07/25 03:45:09;;;;;;;12.70;11.47;;;;;;;19.48;95.70;97812.81;5064781;28;20212;-74
2022/07/25 03:47:36;;;;;;;11.40;10.30;;;;;;;19.45;96.11;97802.41;5062994;28;20234;-75
2022/07/25 03:50:03;;;;;;;12.57;11.27;;;;;;;19.38;96.83;97809.47;5061094;28;20212;-72
2022/07/25 03:52:29;;;;;;;12.33;11.13;;;;;;;19.33;97.47;97809.13;5062820;28;20215;-74
2022/07/25 03:54:57;;;;;;;11.43;10.33;;;;;;;19.36;97.35;97808.78;5063106;28;20226;-72
2022/07/25 03:57:24;;;;;;;11.87;10.70;;;;;;;19.40;97.02;97810.16;5063429;28;20211;-74
2022/07/25 03:59:50;;;;;;;11.97;10.87;;;;;;;19.35;97.79;97799.09;5061156;28;20231;-72
2022/07/25 04:02:17;;;;;;;11.47;10.37;;;;;;;19.37;97.60;97797.06;5066296;28;20216;-74
2022/07/25 04:04:43;;;;;;;11.67;10.57;;;;;;;19.39;97.66;97796.91;5068300;28;20684;-72
2022/07/25 04:07:10;;;;;;;11.97;10.63;;;;;;;19.42;97.46;97792.03;5067340;28;20247;-72
2022/07/25 04:09:36;;;;;;;12.30;11.20;;;;;;;19.48;97.28;97795.88;5064557;28;20662;-74
2022/07/25 04:12:05;;;;;;;12.73;11.50;;;;;;;19.55;96.56;97796.88;5065410;28;20223;-73
2022/07/25 04:14:32;;;;;;;11.70;10.50;;;;;;;19.57;96.54;97792.19;5068447;28;20215;-74
2022/07/25 04:16:59;;;;;;;12.03;10.93;;;;;;;19.63;96.16;97792.34;5067187;28;20219;-72
2022/07/25 04:19:26;;;;;;;11.83;10.73;;;;;;;19.70;95.81;97793.31;5063560;28;20219;-72
2022/07/25 04:21:52;;;;;;;12.63;11.43;;;;;;;19.77;95.47;97785.44;5064059;28;20240;-74
2022/07/25 04:24:19;;;;;;;12.63;11.43;;;;;;;19.87;94.78;97791.47;5067899;28;20211;-74
2022/07/25 04:26:45;;;;;;;11.10;10.00;;;;;;;19.88;94.63;97788.59;5067645;28;20235;-73
2022/07/25 04:29:13;;;;;;;12.40;11.20;;;;;;;19.94;94.82;97795.94;5064086;28;20223;-74
2022/07/25 04:31:40;;;;;;;11.20;10.10;;;;;;;19.99;94.76;97782.03;5064484;28;20220;-74
2022/07/25 04:34:06;;;;;;;11.93;10.73;;;;;;;20.04;94.84;97783.19;5067839;28;20219;-73
2022/07/25 04:36:33;;;;;;;12.67;11.23;;;;;;;20.13;94.40;97776.81;5067973;28;20226;-75
2022/07/25 04:38:59;;;;;;;12.47;11.27;;;;;;;20.21;94.31;97774.09;5061129;28;20299;-74
2022/07/25 04:41:26;;;;;;;12.37;11.17;;;;;;;20.25;94.39;97775.41;5063862;28;20208;-74
2022/07/25 04:43:52;;;;;;;12.23;11.03;;;;;;;20.28;94.03;97779.59;5067767;28;20218;-74
2022/07/25 04:46:21;;;;;;;11.97;10.77;;;;;;;20.32;93.64;97784.47;5065768;28;20235;-74
2022/07/25 04:48:49;;;;;;;11.90;10.80;;;;;;;20.41;92.99;97783.38;5064088;28;20218;-74
2022/07/25 04:51:15;;;;;;;11.20;10.10;;;;;;;20.75;90.89;97783.88;5063886;28;20230;-74
2022/07/25 04:53:42;;;;;;;11.67;10.53;;;;;;;20.84;90.04;97782.81;5067440;28;20216;-74
2022/07/25 04:56:09;;;;;;;12.47;11.23;;;;;;;20.85;89.55;97784.47;5067205;28;20226;-74
2022/07/25 04:58:35;;;;;;;11.93;10.83;;;;;;;20.88;89.18;97775.25;5064177;28;20212;-74
2022/07/25 05:01:02;;;;;;;11.43;10.27;;;;;;;20.94;88.53;97778.06;5063610;28;20212;-74
2022/07/25 05:03:30;;;;;;;12.73;10.53;;;;;;;21.00;87.90;97771.97;5066740;28;20211;-74
2022/07/25 05:05:56;;;;;;;11.77;10.67;;;;;;;21.08;87.66;97771.91;5067061;28;20211;-74
2022/07/25 05:08:23;;;;;;;12.20;11.03;;;;;;;21.22;86.73;97771.13;5064443;28;20236;-74
2022/07/25 05:10:49;;;;;;;11.53;10.43;;;;;;;21.31;86.96;97775.41;5063450;28;20220;-72
2022/07/25 05:13:16;;;;;;;12.70;11.40;;;;;;;21.37;87.30;97780.06;5064435;28;20216;-74
2022/07/25 05:15:42;;;;;;;12.20;11.00;;;;;;;21.53;86.19;97769.16;5067086;28;20329;-74
2022/07/25 05:18:09;;;;;;;12.97;11.60;;;;;;;21.69;85.49;97771.72;5064786;28;20302;-73
2022/07/25 05:20:38;;;;;;;12.37;11.03;;;;;;;21.92;85.40;97777.88;5063496;28;20639;-74
2022/07/25 05:23:04;;;;;;;13.83;12.40;;;;;;;22.15;83.63;97775.06;5065854;28;20216;-73
2022/07/25 05:25:31;;;;;;;11.87;10.77;;;;;;;22.64;81.79;97771.59;5066824;28;20258;-74
2022/07/25 05:27:58;;;;;;;13.07;11.77;;;;;;;23.59;77.18;97773.81;5064551;28;20240;-74
2022/07/25 05:30:25;;;;;;;12.67;11.37;;;;;;;24.59;72.95;97767.81;5063225;28;20216;-74
2022/07/25 05:32:51;;;;;;;12.30;10.67;;;;;;;25.50;69.10;97773.44;5065077;28;20211;-73
2022/07/25 05:35:18;;;;;;;13.17;10.90;;;;;;;26.32;65.31;97769.19;5066773;28;20575;-73
2022/07/25 05:37:46;;;;;;;13.37;11.10;;;;;;;26.98;62.40;97770.59;5059703;28;20579;-73
2022/07/25 05:40:13;;;;;;;11.83;9.90;;;;;;;27.57;59.42;97766.44;5061357;28;20643;-72
2022/07/25 05:42:39;;;;;;;11.57;10.47;;;;;;;28.15;57.17;97759.66;5064950;28;20212;-73
2022/07/25 05:45:07;;;;;;;11.30;10.20;;;;;;;28.66;54.53;97768.28;5066711;28;20220;-74
2022/07/25 05:47:33;;;;;;;11.50;9.53;;;;;;;29.13;52.04;97772.09;5065080;28;20246;-72
2022/07/25 05:50:00;;;;;;;11.45;10.25;;;;;;;29.44;50.54;97772.66;5062493;28;20577;-73
2022/07/25 05:52:26;;;;;;;9.77;8.82;;;;;;;29.71;49.22;97768.47;5064352;28;20252;-72
2022/07/25 05:54:54;;;;;;;10.80;9.73;;;;;;;30.03;49.02;97761.63;5066318;28;20582;-73
2022/07/25 05:57:21;;;;;;;13.07;9.75;;;;;;;30.26;48.12;97760.81;5065120;28;20211;-73
2022/07/25 05:59:47;;;;;;;9.65;8.75;;;;;;;30.49;47.55;97756.13;5062332;28;20670;-74
2022/07/25 06:02:14;;;;;;;11.60;9.27;;;;;;;30.78;46.44;97759.78;5063812;28;20208;-74
2022/07/25 06:04:40;;;;;;;10.32;9.43;;;;;;;31.11;45.75;97765.34;5065882;28;20207;-73
2022/07/25 06:07:07;;;;;;;10.68;9.27;;;;;;;31.42;44.67;97764.88;5064255;28;20239;-72
2022/07/25 06:09:33;;;;;;;9.43;8.52;;;;;;;31.57;44.27;97755.03;5062573;28;20222;-74
2022/07/25 06:12:01;;;;;;;10.93;9.82;;;;;;;31.75;43.47;97762.19;5062959;28;20216;-73
2022/07/25 06:14:28;;;;;;;9.90;8.90;;;;;;;31.93;43.46;97753.72;5065811;28;20218;-73
2022/07/25 06:16:56;;;;;;;9.98;9.07;;;;;;;32.18;42.73;97759.56;5065329;28;20219;-73
2022/07/25 06:19:22;;;;;;;10.18;9.27;;;;;;;32.28;42.47;97757.84;5062308;28;20227;-73
2022/07/25 06:21:49;;;;;;;9.98;9.00;;;;;;;32.49;42.34;97754.31;5062355;28;20236;-73
2022/07/25 06:24:15;;;;;;;9.80;8.93;;;;;;;32.71;41.61;97757.06;5065321;28;20310;-72
2022/07/25 06:26:42;;;;;;;9.15;8.25;;;;;;;32.86;41.21;97749.03;5065699;28;20223;-71
2022/07/25 06:29:11;;;;;;;9.40;8.60;;;;;;;33.09;41.10;97740.56;5054571;28;20207;-73
2022/07/25 06:31:37;;;;;;;9.43;8.52;;;;;;;33.18;40.82;97731.63;5060380;28;20216;-73
2022/07/25 06:34:04;;;;;;;9.45;8.65;;;;;;;33.35;40.53;97737.00;5065845;28;20215;-72
2022/07/25 06:36:30;;;;;;;9.23;8.40;;;;;;;33.53;40.81;97733.88;5065482;28;20783;-73
2022/07/25 06:38:57;;;;;;;9.52;8.73;;;;;;;33.63;40.48;97736.72;5061585;28;20205;-73
2022/07/25 06:41:23;;;;;;;9.40;8.50;;;;;;;33.77;40.63;97735.22;5061824;28;20342;-73
2022/07/25 06:43:50;;;;;;;9.10;8.30;;;;;;;33.89;40.35;97733.97;5065567;28;20207;-73
2022/07/25 06:46:18;;;;;;;9.25;8.45;;;;;;;34.06;39.81;97733.78;5065368;28;20691;-71
2022/07/25 06:48:44;;;;;;;8.95;8.18;;;;;;;34.07;39.74;97725.31;5058041;28;20713;-72
2022/07/25 06:51:11;;;;;;;9.20;8.30;;;;;;;34.02;39.35;97732.66;5060729;28;20222;-72
2022/07/25 06:53:37;;;;;;;9.60;8.70;;;;;;;34.00;39.45;97730.22;5062372;28;20243;-71
2022/07/25 06:56:04;;;;;;;9.10;8.30;;;;;;;33.95;39.52;97732.06;5060536;28;20573;-71
2022/07/25 06:58:31;;;;;;;9.10;8.30;;;;;;;33.55;40.05;97732.53;5060905;28;20220;-72
2022/07/25 07:00:59;;;;;;;9.10;8.30;;;;;;;32.91;39.93;97736.25;5061492;28;20222;-71
2022/07/25 07:03:27;;;;;;;9.80;8.90;;;;;;;32.02;42.05;97741.31;5064324;28;20212;-74
2022/07/25 07:05:54;;;;;;;9.40;8.38;;;;;;;30.78;44.81;97737.94;5065265;28;20215;-71
2022/07/25 07:08:21;;;;;;;10.25;9.35;;;;;;;29.82;47.20;97736.84;5062233;28;20249;-76
2022/07/25 07:10:47;;;;;;;9.70;8.75;;;;;;;29.18;49.57;97739.56;5061425;28;20227;-76
2022/07/25 07:13:16;;;;;;;9.93;8.95;;;;;;;28.71;50.33;97732.25;5064143;28;20219;-78
2022/07/25 07:15:45;;;;;;;10.35;9.35;;;;;;;28.39;52.26;97730.78;5064661;28;20299;-76
2022/07/25 07:18:12;;;;;;;10.45;9.45;;;;;;;28.23;53.52;97729.47;5061918;28;20240;-76
2022/07/25 07:20:40;;;;;;;9.88;8.98;;;;;;;28.17;54.43;97724.94;5061178;28;20236;-76
2022/07/25 07:23:06;;;;;;;8.98;8.07;;;;;;;28.17;54.41;97724.09;5064072;28;20216;-76
2022/07/25 07:25:33;;;;;;;10.75;9.68;;;;;;;28.20;53.96;97723.66;5063390;28;20242;-73
2022/07/25 07:27:59;;;;;;;10.18;9.27;;;;;;;28.20;54.64;97729.91;5059668;28;20232;-70
2022/07/25 07:30:26;;;;;;;9.85;8.73;;;;;;;28.26;53.46;97729.00;5059553;28;20590;-70
2022/07/25 07:32:53;;;;;;;9.73;8.93;;;;;;;28.31;54.35;97725.63;5051213;28;20220;-70
2022/07/25 07:35:19;;;;;;;9.57;8.68;;;;;;;28.32;53.57;97722.66;5060654;28;20207;-70
2022/07/25 07:37:47;;;;;;;9.80;9.00;;;;;;;28.39;53.94;97717.19;5060695;28;20215;-71
2022/07/25 07:40:15;;;;;;;10.68;9.40;;;;;;;28.49;53.71;97717.47;5063899;28;20212;-70
2022/07/25 07:42:43;;;;;;;10.10;9.10;;;;;;;28.56;54.90;97712.78;5066263;28;20227;-72
2022/07/25 07:45:14;;;;;;;10.40;9.40;;;;;;;28.63;55.13;97708.94;5067533;28;20234;-70
2022/07/25 07:47:41;;;;;;;9.90;9.07;;;;;;;28.65;54.32;97714.97;5064543;28;20239;-71
2022/07/25 07:50:09;;;;;;;10.38;9.38;;;;;;;28.70;53.42;97706.94;5063640;28;20216;-71
2022/07/25 07:52:36;;;;;;;10.02;9.10;;;;;;;28.75;54.15;97701.66;5065743;28;20215;-72
2022/07/25 07:57:49;;;;;;;9.65;8.75;;;;;;;28.98;52.77;97693.56;5057473;28;20310;-70
2022/07/25 08:00:17;;;;;;;10.57;9.48;;;;;;;29.02;52.89;97699.38;5064821;28;20208;-71
2022/07/25 08:02:45;;;;;;;9.52;8.70;;;;;;;29.11;52.23;97706.16;5067371;28;20298;-70
2022/07/25 08:05:12;;;;;;;10.25;9.30;;;;;;;29.20;52.93;97704.75;5065966;28;20223;-71
2022/07/25 08:07:38;;;;;;;10.73;9.20;;;;;;;29.32;53.17;97705.59;5063163;28;20788;-70
2022/07/25 08:10:08;;;;;;;11.25;9.57;;;;;;;29.43;52.65;97704.81;5058664;28;20681;-69
2022/07/25 08:12:39;;;;;;;10.30;9.30;;;;;;;29.50;52.59;97705.53;5067145;28;20215;-69
2022/07/25 08:15:07;;;;;;;9.95;9.05;;;;;;;29.60;51.72;97703.09;5064916;28;20675;-70
2022/07/25 08:17:34;;;;;;;10.55;9.55;;;;;;;29.60;51.48;97701.19;5061415;28;20218;-70
2022/07/25 08:20:05;;;;;;;10.20;9.30;;;;;;;29.72;52.87;97698.47;5065401;28;20230;-70
2022/07/25 08:22:35;;;;;;;10.88;9.77;;;;;;;29.80;51.10;97703.56;5066644;28;20243;-69
2022/07/25 08:25:02;;;;;;;9.95;9.15;;;;;;;29.90;51.28;97706.53;5063960;28;20216;-69
2022/07/25 08:27:30;;;;;;;10.45;9.55;;;;;;;29.94;50.32;97702.25;5062818;28;20255;-69
2022/07/25 08:29:57;;;;;;;10.88;9.73;;;;;;;30.01;49.34;97703.78;5065539;28;20218;-71
2022/07/25 08:32:24;;;;;;;10.80;9.77;;;;;;;30.12;49.88;97710.31;5066817;28;20238;-72
2022/07/25 08:34:50;;;;;;;10.80;9.75;;;;;;;30.21;49.65;97703.44;5064351;28;20597;-71
2022/07/25 08:37:17;;;;;;;10.25;9.35;;;;;;;30.33;50.39;97704.25;5062970;28;20216;-71
2022/07/25 08:39:43;;;;;;;11.13;9.90;;;;;;;30.38;49.58;97710.63;5065160;28;20214;-71
2022/07/25 08:42:10;;;;;;;10.10;9.23;;;;;;;30.49;48.56;97706.19;5066795;28;20218;-71
2022/07/25 08:44:42;;;;;;;10.60;9.60;;;;;;;30.49;48.44;97706.19;5062629;28;20295;-71
2022/07/25 08:47:14;;;;;;;10.52;9.52;;;;;;;30.50;47.39;97702.44;5061977;28;20227;-71
2022/07/25 08:49:41;;;;;;;10.40;9.50;;;;;;;30.67;45.69;97703.31;5066037;28;20222;-71
2022/07/25 08:52:08;;;;;;;11.30;9.57;;;;;;;30.78;45.76;97706.03;5066366;28;20215;-71
2022/07/25 08:54:35;;;;;;;10.68;9.68;;;;;;;30.84;46.98;97704.22;5063222;28;20266;-71
2022/07/25 08:57:02;;;;;;;10.23;9.23;;;;;;;30.93;48.79;97700.84;5062352;28;20223;-71
2022/07/25 08:59:30;;;;;;;10.57;9.68;;;;;;;31.00;47.69;97706.16;5065493;28;20222;-71
2022/07/25 09:02:01;;;;;;;10.55;9.55;;;;;;;30.97;45.19;97699.28;5066201;28;20302;-71
2022/07/25 09:04:28;;;;;;;10.90;8.70;;;;;;;31.18;46.39;97706.78;5062733;28;20612;-71
2022/07/25 09:06:55;;;;;;;10.02;9.20;;;;;;;31.40;44.01;97704.16;5062133;28;20212;-72
2022/07/25 09:09:29;;;;;;;10.65;9.75;;;;;;;31.34;43.97;97699.69;5065739;28;20903;-72
2022/07/25 09:11:56;;;;;;;10.23;9.35;;;;;;;31.37;44.77;97704.69;5064303;28;20301;-72
2022/07/25 09:14:22;;;;;;;10.23;9.40;;;;;;;31.54;43.76;97692.66;5062069;28;20702;-72
2022/07/25 09:16:49;;;;;;;10.48;9.57;;;;;;;31.56;44.04;97693.28;5062149;28;20708;-72
2022/07/25 09:19:19;;;;;;;10.50;9.40;;;;;;;31.63;45.27;97688.47;5065647;28;20207;-72
2022/07/25 09:21:58;;;;;;;10.52;9.55;;;;;;;31.78;44.73;97690.63;5065707;28;20235;-72
2022/07/25 09:24:25;;;;;;;11.05;10.00;;;;;;;31.83;42.29;97693.41;5057992;28;20243;-71
2022/07/25 09:26:53;;;;;;;9.77;8.77;;;;;;;31.82;40.42;97686.31;5063828;28;20223;-71
2022/07/25 09:29:23;;;;;;;8.00;7.30;;;;;;;31.92;39.44;97681.00;5065696;28;20239;-72
2022/07/25 09:31:51;;;;;;;9.10;8.30;;;;;;;32.05;38.70;97686.09;5063552;28;20218;-70
2022/07/25 09:34:33;;;;;;;9.18;8.38;;;;;;;32.04;39.05;97678.97;5061760;28;20215;-72
2022/07/25 09:37:00;;;;;;;9.50;8.60;;;;;;;32.18;38.11;97680.25;5049997;28;20616;-71
2022/07/25 09:39:39;;;;;;;8.98;8.18;;;;;;;32.14;39.19;97685.41;5060219;28;20234;-72
2022/07/25 09:42:18;;;;;;;9.25;8.45;;;;;;;32.25;38.63;97683.66;5061757;28;20270;-74
2022/07/25 09:44:56;;;;;;;9.05;8.23;;;;;;;32.24;38.13;97685.59;5063837;28;20299;-73
2022/07/25 09:47:23;;;;;;;9.35;8.45;;;;;;;32.27;38.65;97684.25;5062285;28;20207;-70
2022/07/25 09:49:51;;;;;;;9.15;8.38;;;;;;;32.21;38.96;97683.31;5060533;28;20289;-71
2022/07/25 09:52:18;;;;;;;8.90;8.10;;;;;;;32.36;38.13;97688.19;5061554;28;20724;-72
2022/07/25 09:54:45;;;;;;;9.40;8.35;;;;;;;32.32;38.05;97678.81;5049887;28;20231;-73
2022/07/25 09:57:12;;;;;;;9.18;8.38;;;;;;;32.27;38.23;97679.59;5035297;28;20223;-71
2022/07/25 09:59:38;;;;;;;9.07;8.27;;;;;;;32.35;37.83;97681.06;5063534;28;20219;-71
2022/07/25 10:02:09;;;;;;;9.07;8.27;;;;;;;32.28;38.43;97680.44;5068173;28;20215;-72
2022/07/25 10:04:52;;;;;;;8.80;7.70;;;;;;;32.40;37.83;97672.94;5069125;28;20215;-72
2022/07/25 10:07:22;;;;;;;8.43;7.63;;;;;;;32.51;39.25;97674.72;5065769;28;20207;-72
2022/07/25 10:09:50;;;;;;;8.48;7.72;;;;;;;32.60;37.21;97674.00;5068931;28;20367;-71
2022/07/25 10:12:20;;;;;;;8.20;7.40;;;;;;;32.66;36.97;97663.94;5069069;28;20215;-74
2022/07/25 10:15:06;;;;;;;9.10;8.30;;;;;;;32.64;36.66;97663.38;5068951;28;20215;-71
2022/07/25 10:17:33;;;;;;;9.30;8.40;;;;;;;32.65;37.36;97656.81;5066364;28;20421;-72
2022/07/25 10:20:00;;;;;;;8.70;8.00;;;;;;;32.78;36.81;97648.22;5068870;28;20212;-71
2022/07/25 10:22:38;;;;;;;9.23;8.43;;;;;;;32.75;36.95;97648.72;5068930;28;20235;-72
2022/07/25 10:25:11;;;;;;;8.50;7.78;;;;;;;32.87;37.99;97647.50;5065552;28;20215;-71
2022/07/25 10:27:43;;;;;;;8.32;7.63;;;;;;;32.96;36.54;97636.91;5044904;28;20242;-72
2022/07/25 10:30:18;;;;;;;8.57;7.65;;;;;;;32.87;37.29;97643.94;5068490;28;20219;-72
2022/07/25 10:32:49;;;;;;;8.40;7.70;;;;;;;32.96;35.94;97636.91;5065435;28;20257;-73
2022/07/25 10:35:17;;;;;;;8.40;7.60;;;;;;;32.99;36.54;97639.94;5067760;28;20234;-72
2022/07/25 10:37:45;;;;;;;7.55;6.85;;;;;;;33.07;36.33;97634.00;5062023;28;20204;-72
2022/07/25 10:40:12;;;;;;;7.70;7.10;;;;;;;33.20;37.12;97621.78;5063202;28;20207;-72
2022/07/25 10:42:44;;;;;;;8.45;7.75;;;;;;;33.34;38.17;97620.28;5066484;28;20213;-73
2022/07/25 10:45:17;;;;;;;8.80;7.85;;;;;;;33.43;37.64;97622.28;5067892;28;20223;-73
2022/07/25 10:47:53;;;;;;;8.40;7.60;;;;;;;33.41;34.87;97620.88;5068489;28;20615;-73
2022/07/25 10:50:22;;;;;;;8.05;7.35;;;;;;;33.48;34.96;97627.00;5067658;28;20207;-72
2022/07/25 10:53:00;;;;;;;8.00;7.30;;;;;;;33.43;34.97;97619.53;5066120;28;20220;-72
2022/07/25 10:55:28;;;;;;;7.82;7.13;;;;;;;33.53;35.54;97624.25;5068148;28;20306;-73
2022/07/25 10:58:03;;;;;;;7.95;7.25;;;;;;;33.67;34.83;97625.47;5068380;28;20216;-72
2022/07/25 11:00:31;;;;;;;7.65;6.95;;;;;;;33.65;34.13;97612.03;5063281;28;20238;-74
2022/07/25 11:02:58;;;;;;;7.40;6.82;;;;;;;33.63;35.73;97610.63;5043844;28;20607;-74
2022/07/25 11:05:25;;;;;;;7.32;6.72;;;;;;;33.70;36.11;97606.56;5067945;28;20215;-74
2022/07/25 11:07:52;;;;;;;8.05;7.03;;;;;;;33.77;33.83;97603.63;5067544;28;20208;-73
2022/07/25 11:10:27;;;;;;;6.85;6.28;;;;;;;33.80;33.11;97600.38;5064381;28;20208;-75
2022/07/25 11:12:54;;;;;;;6.15;5.55;;;;;;;34.01;32.21;97602.09;5045078;28;20251;-73
2022/07/25 11:15:23;;;;;;;6.63;6.07;;;;;;;34.02;32.35;97595.53;5068471;28;20554;-72
2022/07/25 11:17:51;;;;;;;6.28;5.78;;;;;;;34.04;32.94;97604.31;5067595;28;20216;-73
2022/07/25 11:20:18;;;;;;;6.40;5.85;;;;;;;33.95;33.88;97594.94;5065104;28;20222;-75
2022/07/25 11:22:51;;;;;;;6.47;5.88;;;;;;;33.92;32.16;97600.97;5068028;28;20578;-73
2022/07/25 11:25:21;;;;;;;6.35;5.85;;;;;;;34.07;32.58;97581.84;5068075;28;20235;-72
2022/07/25 11:27:56;;;;;;;6.25;5.68;;;;;;;34.11;32.27;97591.19;5064807;28;20297;-72
2022/07/25 11:30:23;;;;;;;7.28;6.05;;;;;;;34.29;32.16;97585.25;5066945;28;20320;-72